Saint Petersburg, Russia
Current Conditions -  °F | °C
As of 3:00 PM on Sunday 23 Nov 2014 (Local Time) from ULLI Reporting Station
Haze Haze  
Wind Chill: -1°   Ceiling: 300
Heat Index:   Visibility: 2.7mi
Dew Point:   Wind: 4mph
Humidity: 93%   Direction: 230°SW
Pressure: 30.53"   Gusts: NA
Location:  59.93°N, 30.32°E
Report Text: ULLI 231200Z 23002MPS 4400 BR OVC003 01/00 Q1034 88290050 TEMPOBKN003 RMK QBB110 OBST OBSC
Loading
Personal Weather Stations






























Interactive Weather Map New forecast layout! Learn more

10-Day Weather Forecast

Advertisements
Track Severe Weather on mobile